Terminal Aerodrome Forecast
Issued by NWS

Home | Current Version | Previous Version | Text Only | Print | Product List | Glossary Off
Versions: 1 2 3 4 5 6 7 8 9 10 11 12 13 14 15 16 17 18 19 20 21 22 23

000
FTUS43 KABR 060412 AAI
TAFMBG
TAF AMD
KMBG 060412Z 0604/0624 30022G34KT 4SM BLSN SCT015 OVC200
     FM060600 31022G32KT P6SM OVC025
     FM062100 31020G30KT P6SM BKN025=

USA.gov is the U.S. government's official web portal to all federal, state and local government web resources and services.